Terminal Aerodrome Forecast
Issued by NWS Twin Cities, MN

Home | Current Version | Previous Version | Text Only | Print | Product List | Glossary Off
Versions: 1 2 3 4 5 6 7 8 9 10 11 12 13 14 15 16 17 18 19 20 21 22 23 24 25

000
FTUS43 KMPX 040849 AAA
TAFMSP
TAF AMD
KMSP 040849Z 0409/0512 29009KT P6SM FEW020 SCT200
     FM041200 28008KT P6SM FEW250
     FM041600 29015G22KT P6SM SCT040 SCT250
     FM050200 30008KT P6SM FEW250=

USA.gov is the U.S. government's official web portal to all federal, state and local government web resources and services.